sensor_id;sensor_type;location;lat;lon;timestamp;P1;durP1;ratioP1;P2;durP2;ratioP2
2772;SDS011;1394;47.044;15.744;2023-07-24T00:01:16;24.90;;;1.97;;
2772;SDS011;1394;47.044;15.744;2023-07-24T00:03:44;24.80;;;1.83;;
2772;SDS011;1394;47.044;15.744;2023-07-24T00:06:12;25.17;;;1.93;;
2772;SDS011;1394;47.044;15.744;2023-07-24T00:08:39;26.00;;;1.80;;
2772;SDS011;1394;47.044;15.744;2023-07-24T00:11:08;25.00;;;1.90;;
2772;SDS011;1394;47.044;15.744;2023-07-24T00:13:35;25.40;;;1.80;;
2772;SDS011;1394;47.044;15.744;2023-07-24T00:16:05;24.90;;;2.10;;
2772;SDS011;1394;47.044;15.744;2023-07-24T00:18:33;25.10;;;2.10;;
2772;SDS011;1394;47.044;15.744;2023-07-24T00:21:00;25.30;;;2.00;;
2772;SDS011;1394;47.044;15.744;2023-07-24T00:23:27;26.67;;;2.50;;
2772;SDS011;1394;47.044;15.744;2023-07-24T00:25:54;25.43;;;2.20;;
2772;SDS011;1394;47.044;15.744;2023-07-24T00:28:23;25.67;;;2.17;;
2772;SDS011;1394;47.044;15.744;2023-07-24T00:30:51;26.80;;;3.10;;
2772;SDS011;1394;47.044;15.744;2023-07-24T00:33:18;25.50;;;2.03;;
2772;SDS011;1394;47.044;15.744;2023-07-24T00:35:45;25.00;;;1.93;;
2772;SDS011;1394;47.044;15.744;2023-07-24T00:38:12;25.80;;;2.10;;
2772;SDS011;1394;47.044;15.744;2023-07-24T00:40:40;25.10;;;1.80;;
2772;SDS011;1394;47.044;15.744;2023-07-24T00:43:07;25.67;;;2.10;;
2772;SDS011;1394;47.044;15.744;2023-07-24T00:45:35;25.17;;;2.00;;
2772;SDS011;1394;47.044;15.744;2023-07-24T00:48:03;25.50;;;2.20;;
2772;SDS011;1394;47.044;15.744;2023-07-24T00:50:31;25.90;;;2.03;;
2772;SDS011;1394;47.044;15.744;2023-07-24T00:52:59;25.10;;;1.90;;
2772;SDS011;1394;47.044;15.744;2023-07-24T00:55:26;25.20;;;2.10;;
2772;SDS011;1394;47.044;15.744;2023-07-24T00:57:53;25.20;;;2.40;;
2772;SDS011;1394;47.044;15.744;2023-07-24T01:00:21;24.93;;;2.10;;
2772;SDS011;1394;47.044;15.744;2023-07-24T01:02:49;25.30;;;2.40;;
2772;SDS011;1394;47.044;15.744;2023-07-24T01:05:17;25.30;;;2.37;;
2772;SDS011;1394;47.044;15.744;2023-07-24T01:07:44;25.17;;;2.10;;
2772;SDS011;1394;47.044;15.744;2023-07-24T01:10:12;24.87;;;2.03;;
2772;SDS011;1394;47.044;15.744;2023-07-24T01:12:41;25.10;;;2.20;;
2772;SDS011;1394;47.044;15.744;2023-07-24T01:15:12;26.03;;;2.20;;
2772;SDS011;1394;47.044;15.744;2023-07-24T01:17:42;25.20;;;2.40;;
2772;SDS011;1394;47.044;15.744;2023-07-24T01:20:13;25.43;;;2.10;;
2772;SDS011;1394;47.044;15.744;2023-07-24T01:22:46;25.07;;;2.13;;
2772;SDS011;1394;47.044;15.744;2023-07-24T01:25:17;26.00;;;2.20;;
2772;SDS011;1394;47.044;15.744;2023-07-24T01:27:46;26.10;;;2.37;;
2772;SDS011;1394;47.044;15.744;2023-07-24T01:30:16;25.10;;;2.13;;
2772;SDS011;1394;47.044;15.744;2023-07-24T01:32:43;25.00;;;1.93;;
2772;SDS011;1394;47.044;15.744;2023-07-24T01:35:11;25.10;;;2.10;;
2772;SDS011;1394;47.044;15.744;2023-07-24T01:37:38;25.47;;;2.00;;
2772;SDS011;1394;47.044;15.744;2023-07-24T01:40:07;25.00;;;2.00;;
2772;SDS011;1394;47.044;15.744;2023-07-24T01:42:35;25.23;;;2.10;;
2772;SDS011;1394;47.044;15.744;2023-07-24T01:45:08;25.70;;;2.27;;
2772;SDS011;1394;47.044;15.744;2023-07-24T01:47:36;28.13;;;2.00;;
2772;SDS011;1394;47.044;15.744;2023-07-24T01:50:03;24.90;;;1.80;;
2772;SDS011;1394;47.044;15.744;2023-07-24T01:52:32;24.87;;;1.73;;
2772;SDS011;1394;47.044;15.744;2023-07-24T01:54:59;25.47;;;2.17;;
2772;SDS011;1394;47.044;15.744;2023-07-24T01:57:26;24.87;;;1.80;;
2772;SDS011;1394;47.044;15.744;2023-07-24T01:59:54;25.23;;;2.10;;
2772;SDS011;1394;47.044;15.744;2023-07-24T02:02:22;25.30;;;2.00;;
2772;SDS011;1394;47.044;15.744;2023-07-24T02:05:07;25.27;;;2.17;;
2772;SDS011;1394;47.044;15.744;2023-07-24T02:07:51;25.07;;;1.87;;
2772;SDS011;1394;47.044;15.744;2023-07-24T02:10:21;24.80;;;1.80;;
2772;SDS011;1394;47.044;15.744;2023-07-24T02:13:05;25.97;;;2.10;;
2772;SDS011;1394;47.044;15.744;2023-07-24T02:15:33;25.87;;;1.90;;
2772;SDS011;1394;47.044;15.744;2023-07-24T02:18:18;24.97;;;2.30;;
2772;SDS011;1394;47.044;15.744;2023-07-24T02:20:48;26.00;;;2.03;;
2772;SDS011;1394;47.044;15.744;2023-07-24T02:23:15;24.93;;;2.03;;
2772;SDS011;1394;47.044;15.744;2023-07-24T02:25:43;24.97;;;1.70;;
2772;SDS011;1394;47.044;15.744;2023-07-24T02:28:10;25.00;;;1.57;;
2772;SDS011;1394;47.044;15.744;2023-07-24T02:30:37;24.87;;;2.00;;
2772;SDS011;1394;47.044;15.744;2023-07-24T02:33:05;25.07;;;1.93;;
2772;SDS011;1394;47.044;15.744;2023-07-24T02:35:39;24.97;;;2.00;;
2772;SDS011;1394;47.044;15.744;2023-07-24T02:38:06;26.17;;;2.20;;
2772;SDS011;1394;47.044;15.744;2023-07-24T02:40:34;25.50;;;2.30;;
2772;SDS011;1394;47.044;15.744;2023-07-24T02:43:02;26.77;;;2.27;;
2772;SDS011;1394;47.044;15.744;2023-07-24T02:45:29;25.07;;;2.10;;
2772;SDS011;1394;47.044;15.744;2023-07-24T02:47:56;25.03;;;1.90;;
2772;SDS011;1394;47.044;15.744;2023-07-24T02:50:23;24.93;;;2.00;;
2772;SDS011;1394;47.044;15.744;2023-07-24T02:52:52;25.67;;;2.13;;
2772;SDS011;1394;47.044;15.744;2023-07-24T02:55:19;24.90;;;1.90;;
2772;SDS011;1394;47.044;15.744;2023-07-24T02:57:46;25.17;;;1.90;;
2772;SDS011;1394;47.044;15.744;2023-07-24T03:00:14;26.23;;;2.10;;
2772;SDS011;1394;47.044;15.744;2023-07-24T03:02:44;24.90;;;1.80;;
2772;SDS011;1394;47.044;15.744;2023-07-24T03:05:14;25.07;;;1.90;;
2772;SDS011;1394;47.044;15.744;2023-07-24T03:07:42;24.90;;;1.90;;
2772;SDS011;1394;47.044;15.744;2023-07-24T03:10:10;25.80;;;2.30;;
2772;SDS011;1394;47.044;15.744;2023-07-24T03:12:37;25.67;;;2.23;;
2772;SDS011;1394;47.044;15.744;2023-07-24T03:15:05;25.73;;;2.20;;
2772;SDS011;1394;47.044;15.744;2023-07-24T03:17:33;25.33;;;2.00;;
2772;SDS011;1394;47.044;15.744;2023-07-24T03:20:13;25.10;;;1.80;;
2772;SDS011;1394;47.044;15.744;2023-07-24T03:22:41;24.83;;;1.83;;
2772;SDS011;1394;47.044;15.744;2023-07-24T03:25:08;24.90;;;2.03;;
2772;SDS011;1394;47.044;15.744;2023-07-24T03:27:39;25.50;;;2.20;;
2772;SDS011;1394;47.044;15.744;2023-07-24T03:30:06;26.37;;;2.10;;
2772;SDS011;1394;47.044;15.744;2023-07-24T03:32:34;25.60;;;2.10;;
2772;SDS011;1394;47.044;15.744;2023-07-24T03:35:02;25.07;;;2.13;;
2772;SDS011;1394;47.044;15.744;2023-07-24T03:37:30;25.30;;;2.30;;
2772;SDS011;1394;47.044;15.744;2023-07-24T03:39:57;25.30;;;2.10;;
2772;SDS011;1394;47.044;15.744;2023-07-24T03:42:24;24.77;;;1.80;;
2772;SDS011;1394;47.044;15.744;2023-07-24T03:44:54;26.10;;;2.07;;
2772;SDS011;1394;47.044;15.744;2023-07-24T03:47:23;24.97;;;1.93;;
2772;SDS011;1394;47.044;15.744;2023-07-24T03:49:50;25.17;;;2.07;;
2772;SDS011;1394;47.044;15.744;2023-07-24T03:52:17;25.40;;;2.10;;
2772;SDS011;1394;47.044;15.744;2023-07-24T03:54:45;25.30;;;2.20;;
2772;SDS011;1394;47.044;15.744;2023-07-24T03:57:13;25.37;;;2.20;;
2772;SDS011;1394;47.044;15.744;2023-07-24T03:59:40;25.30;;;2.20;;
2772;SDS011;1394;47.044;15.744;2023-07-24T04:02:09;24.90;;;2.03;;
2772;SDS011;1394;47.044;15.744;2023-07-24T04:04:36;25.13;;;2.23;;
2772;SDS011;1394;47.044;15.744;2023-07-24T04:07:03;25.60;;;2.50;;
2772;SDS011;1394;47.044;15.744;2023-07-24T04:09:31;25.00;;;2.10;;
2772;SDS011;1394;47.044;15.744;2023-07-24T04:11:58;26.17;;;2.60;;
2772;SDS011;1394;47.044;15.744;2023-07-24T04:14:27;25.90;;;3.00;;
2772;SDS011;1394;47.044;15.744;2023-07-24T04:16:54;25.73;;;2.53;;
2772;SDS011;1394;47.044;15.744;2023-07-24T04:19:22;26.37;;;3.10;;
2772;SDS011;1394;47.044;15.744;2023-07-24T04:21:50;29.17;;;3.13;;
2772;SDS011;1394;47.044;15.744;2023-07-24T04:24:17;25.87;;;2.80;;
2772;SDS011;1394;47.044;15.744;2023-07-24T04:26:44;27.93;;;3.50;;
2772;SDS011;1394;47.044;15.744;2023-07-24T04:29:11;26.10;;;2.50;;
2772;SDS011;1394;47.044;15.744;2023-07-24T04:31:38;26.00;;;2.57;;
2772;SDS011;1394;47.044;15.744;2023-07-24T04:34:06;25.77;;;2.30;;
2772;SDS011;1394;47.044;15.744;2023-07-24T04:36:35;25.93;;;2.70;;
2772;SDS011;1394;47.044;15.744;2023-07-24T04:39:02;26.70;;;2.40;;
2772;SDS011;1394;47.044;15.744;2023-07-24T04:41:29;25.37;;;2.37;;
2772;SDS011;1394;47.044;15.744;2023-07-24T04:43:56;25.03;;;2.00;;
2772;SDS011;1394;47.044;15.744;2023-07-24T04:46:24;25.00;;;2.13;;
2772;SDS011;1394;47.044;15.744;2023-07-24T04:48:53;25.30;;;2.20;;
2772;SDS011;1394;47.044;15.744;2023-07-24T04:51:20;25.67;;;2.40;;
2772;SDS011;1394;47.044;15.744;2023-07-24T04:53:49;24.97;;;2.13;;
2772;SDS011;1394;47.044;15.744;2023-07-24T04:56:30;24.93;;;1.93;;
2772;SDS011;1394;47.044;15.744;2023-07-24T04:58:57;25.20;;;2.20;;
2772;SDS011;1394;47.044;15.744;2023-07-24T05:01:25;25.53;;;2.63;;
2772;SDS011;1394;47.044;15.744;2023-07-24T05:03:55;25.50;;;2.17;;
2772;SDS011;1394;47.044;15.744;2023-07-24T05:06:22;26.40;;;2.60;;
2772;SDS011;1394;47.044;15.744;2023-07-24T05:08:52;26.40;;;2.43;;
2772;SDS011;1394;47.044;15.744;2023-07-24T05:11:19;24.80;;;2.17;;
2772;SDS011;1394;47.044;15.744;2023-07-24T05:13:46;25.10;;;2.20;;
2772;SDS011;1394;47.044;15.744;2023-07-24T05:16:13;25.80;;;2.70;;
2772;SDS011;1394;47.044;15.744;2023-07-24T05:18:41;25.37;;;2.40;;
2772;SDS011;1394;47.044;15.744;2023-07-24T05:21:08;25.77;;;2.37;;
2772;SDS011;1394;47.044;15.744;2023-07-24T05:23:35;25.87;;;2.23;;
2772;SDS011;1394;47.044;15.744;2023-07-24T05:26:04;25.97;;;2.30;;
2772;SDS011;1394;47.044;15.744;2023-07-24T05:28:31;25.47;;;2.87;;
2772;SDS011;1394;47.044;15.744;2023-07-24T05:31:00;25.10;;;2.30;;
2772;SDS011;1394;47.044;15.744;2023-07-24T05:33:27;25.70;;;2.20;;
2772;SDS011;1394;47.044;15.744;2023-07-24T05:35:57;25.50;;;2.50;;
2772;SDS011;1394;47.044;15.744;2023-07-24T05:38:25;25.10;;;2.10;;
2772;SDS011;1394;47.044;15.744;2023-07-24T05:40:54;26.10;;;2.40;;
2772;SDS011;1394;47.044;15.744;2023-07-24T05:43:25;25.00;;;2.27;;
2772;SDS011;1394;47.044;15.744;2023-07-24T05:45:55;24.87;;;2.10;;
2772;SDS011;1394;47.044;15.744;2023-07-24T05:48:35;25.97;;;2.33;;
2772;SDS011;1394;47.044;15.744;2023-07-24T05:51:03;26.10;;;2.10;;
2772;SDS011;1394;47.044;15.744;2023-07-24T05:53:30;25.90;;;2.67;;
2772;SDS011;1394;47.044;15.744;2023-07-24T05:55:58;25.33;;;2.00;;
2772;SDS011;1394;47.044;15.744;2023-07-24T05:58:29;25.40;;;2.33;;
2772;SDS011;1394;47.044;15.744;2023-07-24T06:00:57;25.90;;;2.73;;
2772;SDS011;1394;47.044;15.744;2023-07-24T06:03:25;25.40;;;2.20;;
2772;SDS011;1394;47.044;15.744;2023-07-24T06:05:55;25.20;;;2.40;;
2772;SDS011;1394;47.044;15.744;2023-07-24T06:08:24;25.60;;;2.63;;
2772;SDS011;1394;47.044;15.744;2023-07-24T06:10:51;25.80;;;2.30;;
2772;SDS011;1394;47.044;15.744;2023-07-24T06:13:19;25.33;;;2.17;;
2772;SDS011;1394;47.044;15.744;2023-07-24T06:15:48;25.47;;;2.20;;
2772;SDS011;1394;47.044;15.744;2023-07-24T06:18:15;25.47;;;2.30;;
2772;SDS011;1394;47.044;15.744;2023-07-24T06:20:42;25.53;;;2.37;;
2772;SDS011;1394;47.044;15.744;2023-07-24T06:23:10;25.60;;;2.50;;
2772;SDS011;1394;47.044;15.744;2023-07-24T06:25:38;25.40;;;2.63;;
2772;SDS011;1394;47.044;15.744;2023-07-24T06:28:05;25.17;;;2.27;;
2772;SDS011;1394;47.044;15.744;2023-07-24T06:30:35;25.33;;;2.27;;
2772;SDS011;1394;47.044;15.744;2023-07-24T06:33:04;25.57;;;2.33;;
2772;SDS011;1394;47.044;15.744;2023-07-24T06:35:31;25.10;;;2.10;;
2772;SDS011;1394;47.044;15.744;2023-07-24T06:37:58;25.37;;;2.30;;
2772;SDS011;1394;47.044;15.744;2023-07-24T06:40:25;26.50;;;2.57;;
2772;SDS011;1394;47.044;15.744;2023-07-24T06:42:55;25.13;;;2.30;;
2772;SDS011;1394;47.044;15.744;2023-07-24T06:45:25;25.50;;;2.50;;
2772;SDS011;1394;47.044;15.744;2023-07-24T06:47:55;25.30;;;2.40;;
2772;SDS011;1394;47.044;15.744;2023-07-24T06:50:26;25.40;;;2.67;;
2772;SDS011;1394;47.044;15.744;2023-07-24T06:52:53;25.90;;;2.40;;
2772;SDS011;1394;47.044;15.744;2023-07-24T06:55:20;25.67;;;2.50;;
2772;SDS011;1394;47.044;15.744;2023-07-24T06:57:48;25.53;;;2.50;;
2772;SDS011;1394;47.044;15.744;2023-07-24T07:00:16;25.07;;;2.13;;
2772;SDS011;1394;47.044;15.744;2023-07-24T07:02:43;24.90;;;2.20;;
2772;SDS011;1394;47.044;15.744;2023-07-24T07:05:11;25.50;;;2.27;;
2772;SDS011;1394;47.044;15.744;2023-07-24T07:07:40;25.40;;;2.40;;
2772;SDS011;1394;47.044;15.744;2023-07-24T07:10:09;25.27;;;2.83;;
2772;SDS011;1394;47.044;15.744;2023-07-24T07:12:36;25.40;;;2.60;;
2772;SDS011;1394;47.044;15.744;2023-07-24T07:15:06;26.13;;;2.40;;
2772;SDS011;1394;47.044;15.744;2023-07-24T07:17:33;25.30;;;2.50;;
2772;SDS011;1394;47.044;15.744;2023-07-24T07:20:01;25.77;;;2.47;;
2772;SDS011;1394;47.044;15.744;2023-07-24T07:22:29;26.13;;;2.50;;
2772;SDS011;1394;47.044;15.744;2023-07-24T07:25:00;25.30;;;2.50;;
2772;SDS011;1394;47.044;15.744;2023-07-24T07:27:27;25.40;;;2.10;;
2772;SDS011;1394;47.044;15.744;2023-07-24T07:29:55;25.50;;;2.30;;
2772;SDS011;1394;47.044;15.744;2023-07-24T07:34:52;26.00;;;2.60;;
2772;SDS011;1394;47.044;15.744;2023-07-24T07:37:19;25.20;;;2.77;;
2772;SDS011;1394;47.044;15.744;2023-07-24T07:39:46;25.40;;;2.90;;
2772;SDS011;1394;47.044;15.744;2023-07-24T07:42:17;26.00;;;2.47;;
2772;SDS011;1394;47.044;15.744;2023-07-24T07:44:45;26.20;;;2.70;;
2772;SDS011;1394;47.044;15.744;2023-07-24T07:47:12;25.63;;;2.47;;
2772;SDS011;1394;47.044;15.744;2023-07-24T07:49:40;25.30;;;2.40;;
2772;SDS011;1394;47.044;15.744;2023-07-24T07:52:07;26.03;;;2.43;;
2772;SDS011;1394;47.044;15.744;2023-07-24T07:54:37;25.90;;;2.60;;
2772;SDS011;1394;47.044;15.744;2023-07-24T07:57:05;25.83;;;2.90;;
2772;SDS011;1394;47.044;15.744;2023-07-24T07:59:33;25.30;;;2.43;;
2772;SDS011;1394;47.044;15.744;2023-07-24T08:02:01;25.33;;;2.57;;
2772;SDS011;1394;47.044;15.744;2023-07-24T08:04:29;25.70;;;2.53;;
2772;SDS011;1394;47.044;15.744;2023-07-24T08:06:59;26.20;;;2.40;;
2772;SDS011;1394;47.044;15.744;2023-07-24T08:09:29;25.53;;;2.30;;
2772;SDS011;1394;47.044;15.744;2023-07-24T08:11:57;25.87;;;2.40;;
2772;SDS011;1394;47.044;15.744;2023-07-24T08:14:27;25.50;;;2.40;;
2772;SDS011;1394;47.044;15.744;2023-07-24T08:17:01;25.03;;;2.40;;
2772;SDS011;1394;47.044;15.744;2023-07-24T08:19:29;25.60;;;2.67;;
2772;SDS011;1394;47.044;15.744;2023-07-24T08:21:56;25.00;;;2.30;;
2772;SDS011;1394;47.044;15.744;2023-07-24T08:24:23;25.17;;;2.30;;
2772;SDS011;1394;47.044;15.744;2023-07-24T08:26:50;25.03;;;2.50;;
2772;SDS011;1394;47.044;15.744;2023-07-24T08:29:20;25.10;;;2.47;;
2772;SDS011;1394;47.044;15.744;2023-07-24T08:31:47;25.93;;;2.50;;
2772;SDS011;1394;47.044;15.744;2023-07-24T08:34:16;25.50;;;2.40;;
2772;SDS011;1394;47.044;15.744;2023-07-24T08:36:43;25.50;;;2.70;;
2772;SDS011;1394;47.044;15.744;2023-07-24T08:39:10;25.27;;;2.40;;
2772;SDS011;1394;47.044;15.744;2023-07-24T08:41:37;25.07;;;2.50;;
2772;SDS011;1394;47.044;15.744;2023-07-24T08:44:07;25.10;;;2.50;;
2772;SDS011;1394;47.044;15.744;2023-07-24T08:46:35;25.77;;;2.47;;
2772;SDS011;1394;47.044;15.744;2023-07-24T08:49:04;25.00;;;2.67;;
2772;SDS011;1394;47.044;15.744;2023-07-24T08:51:33;25.40;;;2.53;;
2772;SDS011;1394;47.044;15.744;2023-07-24T08:54:00;25.30;;;2.70;;
2772;SDS011;1394;47.044;15.744;2023-07-24T08:56:30;25.57;;;2.30;;
2772;SDS011;1394;47.044;15.744;2023-07-24T08:58:57;25.67;;;2.83;;
2772;SDS011;1394;47.044;15.744;2023-07-24T09:01:25;25.47;;;2.73;;
2772;SDS011;1394;47.044;15.744;2023-07-24T09:03:52;25.07;;;2.37;;
2772;SDS011;1394;47.044;15.744;2023-07-24T09:06:19;25.47;;;2.50;;
2772;SDS011;1394;47.044;15.744;2023-07-24T09:08:53;25.40;;;2.50;;
2772;SDS011;1394;47.044;15.744;2023-07-24T09:11:20;25.43;;;2.53;;
2772;SDS011;1394;47.044;15.744;2023-07-24T09:13:47;26.90;;;2.57;;
2772;SDS011;1394;47.044;15.744;2023-07-24T09:16:23;25.50;;;2.90;;
2772;SDS011;1394;47.044;15.744;2023-07-24T09:18:52;25.90;;;2.67;;
2772;SDS011;1394;47.044;15.744;2023-07-24T09:21:27;24.77;;;2.10;;
2772;SDS011;1394;47.044;15.744;2023-07-24T09:23:57;24.80;;;2.30;;
2772;SDS011;1394;47.044;15.744;2023-07-24T09:26:26;25.87;;;2.50;;
2772;SDS011;1394;47.044;15.744;2023-07-24T09:28:53;25.40;;;2.87;;
2772;SDS011;1394;47.044;15.744;2023-07-24T09:31:21;25.17;;;2.57;;
2772;SDS011;1394;47.044;15.744;2023-07-24T09:33:48;24.80;;;2.33;;
2772;SDS011;1394;47.044;15.744;2023-07-24T09:36:16;26.10;;;2.43;;
2772;SDS011;1394;47.044;15.744;2023-07-24T09:38:43;25.63;;;2.40;;
2772;SDS011;1394;47.044;15.744;2023-07-24T09:41:12;24.73;;;2.43;;
2772;SDS011;1394;47.044;15.744;2023-07-24T09:43:41;26.17;;;2.67;;
2772;SDS011;1394;47.044;15.744;2023-07-24T09:46:08;25.37;;;2.63;;
2772;SDS011;1394;47.044;15.744;2023-07-24T09:48:37;25.43;;;2.60;;
2772;SDS011;1394;47.044;15.744;2023-07-24T09:51:06;24.87;;;2.47;;
2772;SDS011;1394;47.044;15.744;2023-07-24T09:53:39;24.83;;;2.13;;
2772;SDS011;1394;47.044;15.744;2023-07-24T09:56:08;24.80;;;2.40;;
2772;SDS011;1394;47.044;15.744;2023-07-24T09:58:38;25.17;;;2.80;;
2772;SDS011;1394;47.044;15.744;2023-07-24T10:01:07;25.33;;;2.60;;
2772;SDS011;1394;47.044;15.744;2023-07-24T10:03:35;24.90;;;2.60;;
2772;SDS011;1394;47.044;15.744;2023-07-24T10:06:03;25.23;;;2.50;;
2772;SDS011;1394;47.044;15.744;2023-07-24T10:08:31;25.00;;;2.50;;
2772;SDS011;1394;47.044;15.744;2023-07-24T10:10:59;25.10;;;2.73;;
2772;SDS011;1394;47.044;15.744;2023-07-24T10:13:27;24.80;;;2.20;;
2772;SDS011;1394;47.044;15.744;2023-07-24T10:16:03;25.10;;;2.57;;
2772;SDS011;1394;47.044;15.744;2023-07-24T10:18:32;25.33;;;2.70;;
2772;SDS011;1394;47.044;15.744;2023-07-24T10:21:00;25.13;;;2.50;;
2772;SDS011;1394;47.044;15.744;2023-07-24T10:23:28;25.00;;;2.50;;
2772;SDS011;1394;47.044;15.744;2023-07-24T10:26:01;26.17;;;3.20;;
2772;SDS011;1394;47.044;15.744;2023-07-24T10:28:30;25.10;;;2.70;;
2772;SDS011;1394;47.044;15.744;2023-07-24T10:30:58;26.10;;;2.60;;
2772;SDS011;1394;47.044;15.744;2023-07-24T10:33:28;25.53;;;2.50;;
2772;SDS011;1394;47.044;15.744;2023-07-24T10:36:03;24.80;;;2.67;;
2772;SDS011;1394;47.044;15.744;2023-07-24T10:38:33;26.00;;;2.90;;
2772;SDS011;1394;47.044;15.744;2023-07-24T10:41:02;26.10;;;2.70;;
2772;SDS011;1394;47.044;15.744;2023-07-24T10:43:39;27.03;;;2.80;;
2772;SDS011;1394;47.044;15.744;2023-07-24T10:46:08;24.80;;;2.50;;
2772;SDS011;1394;47.044;15.744;2023-07-24T10:48:41;25.40;;;2.93;;
2772;SDS011;1394;47.044;15.744;2023-07-24T10:51:09;25.00;;;2.60;;
2772;SDS011;1394;47.044;15.744;2023-07-24T10:53:41;25.53;;;2.73;;
2772;SDS011;1394;47.044;15.744;2023-07-24T10:56:08;25.43;;;2.87;;
2772;SDS011;1394;47.044;15.744;2023-07-24T10:58:38;25.17;;;2.90;;
2772;SDS011;1394;47.044;15.744;2023-07-24T11:01:05;25.60;;;3.07;;
2772;SDS011;1394;47.044;15.744;2023-07-24T11:03:35;25.80;;;2.97;;
2772;SDS011;1394;47.044;15.744;2023-07-24T11:06:03;25.30;;;3.10;;
2772;SDS011;1394;47.044;15.744;2023-07-24T11:08:31;25.40;;;2.90;;
2772;SDS011;1394;47.044;15.744;2023-07-24T11:11:02;24.93;;;2.80;;
2772;SDS011;1394;47.044;15.744;2023-07-24T11:13:29;25.60;;;3.33;;
2772;SDS011;1394;47.044;15.744;2023-07-24T11:16:03;25.63;;;3.10;;
2772;SDS011;1394;47.044;15.744;2023-07-24T11:18:32;25.27;;;3.10;;
2772;SDS011;1394;47.044;15.744;2023-07-24T11:20:59;24.87;;;2.80;;
2772;SDS011;1394;47.044;15.744;2023-07-24T11:23:28;25.30;;;3.40;;
2772;SDS011;1394;47.044;15.744;2023-07-24T11:25:55;25.40;;;3.30;;
2772;SDS011;1394;47.044;15.744;2023-07-24T11:28:23;25.57;;;3.10;;
2772;SDS011;1394;47.044;15.744;2023-07-24T11:30:50;25.00;;;3.00;;
2772;SDS011;1394;47.044;15.744;2023-07-24T11:33:18;25.57;;;3.50;;
2772;SDS011;1394;47.044;15.744;2023-07-24T11:35:46;25.10;;;3.20;;
2772;SDS011;1394;47.044;15.744;2023-07-24T11:38:14;25.40;;;3.20;;
2772;SDS011;1394;47.044;15.744;2023-07-24T11:40:44;25.80;;;3.40;;
2772;SDS011;1394;47.044;15.744;2023-07-24T11:43:14;25.20;;;3.20;;
2772;SDS011;1394;47.044;15.744;2023-07-24T11:45:44;25.30;;;3.10;;
2772;SDS011;1394;47.044;15.744;2023-07-24T11:48:13;25.17;;;3.10;;
2772;SDS011;1394;47.044;15.744;2023-07-24T11:50:44;25.20;;;3.40;;
2772;SDS011;1394;47.044;15.744;2023-07-24T11:53:22;25.33;;;3.23;;
2772;SDS011;1394;47.044;15.744;2023-07-24T11:55:51;25.60;;;3.37;;
2772;SDS011;1394;47.044;15.744;2023-07-24T11:58:18;25.87;;;3.33;;
2772;SDS011;1394;47.044;15.744;2023-07-24T12:00:46;25.50;;;3.23;;
2772;SDS011;1394;47.044;15.744;2023-07-24T12:03:13;25.93;;;3.60;;
2772;SDS011;1394;47.044;15.744;2023-07-24T12:05:41;25.67;;;3.37;;
2772;SDS011;1394;47.044;15.744;2023-07-24T12:08:09;25.30;;;3.00;;
2772;SDS011;1394;47.044;15.744;2023-07-24T12:10:39;25.77;;;3.40;;
2772;SDS011;1394;47.044;15.744;2023-07-24T12:13:08;25.40;;;3.40;;
2772;SDS011;1394;47.044;15.744;2023-07-24T12:15:36;25.53;;;3.60;;
2772;SDS011;1394;47.044;15.744;2023-07-24T12:18:03;25.80;;;3.70;;
2772;SDS011;1394;47.044;15.744;2023-07-24T12:20:31;25.93;;;3.40;;
2772;SDS011;1394;47.044;15.744;2023-07-24T12:22:59;26.63;;;3.30;;
2772;SDS011;1394;47.044;15.744;2023-07-24T12:25:26;25.67;;;3.23;;
2772;SDS011;1394;47.044;15.744;2023-07-24T12:27:53;25.53;;;3.30;;
2772;SDS011;1394;47.044;15.744;2023-07-24T12:30:24;25.83;;;3.20;;
2772;SDS011;1394;47.044;15.744;2023-07-24T12:32:51;25.40;;;3.23;;
2772;SDS011;1394;47.044;15.744;2023-07-24T12:35:23;25.80;;;3.40;;
2772;SDS011;1394;47.044;15.744;2023-07-24T12:37:50;25.60;;;3.53;;
2772;SDS011;1394;47.044;15.744;2023-07-24T12:40:17;26.07;;;3.50;;
2772;SDS011;1394;47.044;15.744;2023-07-24T12:42:44;25.47;;;3.20;;
2772;SDS011;1394;47.044;15.744;2023-07-24T12:45:13;26.40;;;3.57;;
2772;SDS011;1394;47.044;15.744;2023-07-24T12:47:44;25.90;;;3.23;;
2772;SDS011;1394;47.044;15.744;2023-07-24T12:50:11;25.50;;;3.20;;
2772;SDS011;1394;47.044;15.744;2023-07-24T12:52:40;25.40;;;3.30;;
2772;SDS011;1394;47.044;15.744;2023-07-24T12:55:08;25.93;;;3.13;;
2772;SDS011;1394;47.044;15.744;2023-07-24T12:57:35;25.63;;;3.20;;
2772;SDS011;1394;47.044;15.744;2023-07-24T13:00:03;26.60;;;3.80;;
2772;SDS011;1394;47.044;15.744;2023-07-24T13:02:30;25.70;;;3.27;;
2772;SDS011;1394;47.044;15.744;2023-07-24T13:05:02;25.87;;;3.30;;
2772;SDS011;1394;47.044;15.744;2023-07-24T13:07:31;26.00;;;3.60;;
2772;SDS011;1394;47.044;15.744;2023-07-24T13:10:00;26.13;;;3.37;;
2772;SDS011;1394;47.044;15.744;2023-07-24T13:12:28;25.90;;;3.77;;
2772;SDS011;1394;47.044;15.744;2023-07-24T13:14:55;26.23;;;3.60;;
2772;SDS011;1394;47.044;15.744;2023-07-24T13:17:24;25.63;;;3.43;;
2772;SDS011;1394;47.044;15.744;2023-07-24T13:19:51;25.77;;;3.37;;
2772;SDS011;1394;47.044;15.744;2023-07-24T13:22:20;25.57;;;3.60;;
2772;SDS011;1394;47.044;15.744;2023-07-24T13:24:49;25.47;;;3.30;;
2772;SDS011;1394;47.044;15.744;2023-07-24T13:27:17;25.57;;;3.00;;
2772;SDS011;1394;47.044;15.744;2023-07-24T13:29:44;25.40;;;3.43;;
2772;SDS011;1394;47.044;15.744;2023-07-24T13:32:11;25.67;;;3.43;;
2772;SDS011;1394;47.044;15.744;2023-07-24T13:34:38;26.00;;;3.57;;
2772;SDS011;1394;47.044;15.744;2023-07-24T13:37:06;25.77;;;3.50;;
2772;SDS011;1394;47.044;15.744;2023-07-24T13:39:35;25.40;;;3.60;;
2772;SDS011;1394;47.044;15.744;2023-07-24T13:42:02;25.43;;;3.47;;
2772;SDS011;1394;47.044;15.744;2023-07-24T13:44:30;25.47;;;3.13;;
2772;SDS011;1394;47.044;15.744;2023-07-24T13:46:57;25.53;;;3.10;;
2772;SDS011;1394;47.044;15.744;2023-07-24T13:49:24;25.47;;;3.40;;
2772;SDS011;1394;47.044;15.744;2023-07-24T13:51:51;25.40;;;3.30;;
2772;SDS011;1394;47.044;15.744;2023-07-24T13:54:21;25.60;;;3.10;;
2772;SDS011;1394;47.044;15.744;2023-07-24T13:56:52;25.97;;;3.27;;
2772;SDS011;1394;47.044;15.744;2023-07-24T13:59:20;25.67;;;3.33;;
2772;SDS011;1394;47.044;15.744;2023-07-24T14:01:47;25.97;;;3.33;;
2772;SDS011;1394;47.044;15.744;2023-07-24T14:04:14;25.40;;;3.27;;
2772;SDS011;1394;47.044;15.744;2023-07-24T14:06:42;25.10;;;3.00;;
2772;SDS011;1394;47.044;15.744;2023-07-24T14:09:12;25.40;;;3.10;;
2772;SDS011;1394;47.044;15.744;2023-07-24T14:11:40;26.20;;;3.23;;
2772;SDS011;1394;47.044;15.744;2023-07-24T14:14:09;25.17;;;3.30;;
2772;SDS011;1394;47.044;15.744;2023-07-24T14:16:36;25.27;;;3.30;;
2772;SDS011;1394;47.044;15.744;2023-07-24T14:19:04;25.27;;;3.13;;
2772;SDS011;1394;47.044;15.744;2023-07-24T14:21:31;25.10;;;3.43;;
2772;SDS011;1394;47.044;15.744;2023-07-24T14:24:00;25.53;;;3.50;;
2772;SDS011;1394;47.044;15.744;2023-07-24T14:26:27;25.37;;;3.20;;
2772;SDS011;1394;47.044;15.744;2023-07-24T14:28:55;25.27;;;3.10;;
2772;SDS011;1394;47.044;15.744;2023-07-24T14:31:25;25.20;;;3.10;;
2772;SDS011;1394;47.044;15.744;2023-07-24T14:33:55;25.50;;;3.40;;
2772;SDS011;1394;47.044;15.744;2023-07-24T14:36:22;25.60;;;3.37;;
2772;SDS011;1394;47.044;15.744;2023-07-24T14:38:49;26.07;;;3.47;;
2772;SDS011;1394;47.044;15.744;2023-07-24T14:41:16;25.30;;;3.30;;
2772;SDS011;1394;47.044;15.744;2023-07-24T14:43:45;25.13;;;2.93;;
2772;SDS011;1394;47.044;15.744;2023-07-24T14:46:13;25.27;;;3.00;;
2772;SDS011;1394;47.044;15.744;2023-07-24T14:48:42;25.40;;;3.40;;
2772;SDS011;1394;47.044;15.744;2023-07-24T14:51:11;25.87;;;3.30;;
2772;SDS011;1394;47.044;15.744;2023-07-24T14:53:38;25.53;;;3.20;;
2772;SDS011;1394;47.044;15.744;2023-07-24T14:56:06;25.40;;;3.33;;
2772;SDS011;1394;47.044;15.744;2023-07-24T14:58:33;25.60;;;3.03;;